Time;durP1;ratioP1;P1;durP2;ratioP2;P2;SDS_P1;SDS_P2;PMS_P1;PMS_P2;Temp;Humidity;BMP_temperature;BMP_pressure;BME280_temperature;BME280_humidity;BME280_pressure;Samples;Min_cycle;Max_cycle;Signal;HPM_P1;HPM_P2
2024/01/26 00:00:18;;;;;;;4.30;2.00;;;;;;;-7.26;100.00;140518.22;110502;1271;22134;-61
2024/01/26 00:03:04;;;;;;;4.90;2.30;;;;;;;-7.31;100.00;140506.59;110526;1269;22345;-63
2024/01/26 00:05:50;;;;;;;3.60;1.70;;;;;;;-7.23;100.00;140525.09;110526;1273;22838;-60
2024/01/26 00:08:37;;;;;;;3.20;1.80;;;;;;;-7.09;100.00;140558.19;110575;1254;23133;-59
2024/01/26 00:11:23;;;;;;;4.60;1.70;;;;;;;-7.00;100.00;140580.17;110506;1273;22304;-63
2024/01/26 00:14:09;;;;;;;6.80;2.40;;;;;;;-7.03;100.00;140574.25;110533;1273;22093;-62
2024/01/26 00:16:56;;;;;;;4.60;1.50;;;;;;;-7.04;100.00;140570.30;110618;1269;22113;-58
2024/01/26 00:19:42;;;;;;;3.20;1.60;;;;;;;-7.06;100.00;140565.34;110527;1270;22125;-60
2024/01/26 00:22:27;;;;;;;3.60;1.70;;;;;;;-7.11;100.00;140552.27;110603;1273;22389;-60
2024/01/26 00:25:14;;;;;;;4.30;1.60;;;;;;;-7.11;100.00;140553.00;110514;1273;22381;-61
2024/01/26 00:28:00;;;;;;;3.20;1.70;;;;;;;-7.13;100.00;140547.34;110534;1273;22829;-60
2024/01/26 00:30:46;;;;;;;2.50;1.50;;;;;;;-7.22;100.00;140527.58;110531;1267;22126;-58
2024/01/26 00:33:33;;;;;;;4.10;2.00;;;;;;;-7.29;100.00;140510.55;110521;1269;22314;-60
2024/01/26 00:36:20;;;;;;;3.80;1.70;;;;;;;-7.36;100.00;140494.00;110651;1267;22344;-59
2024/01/26 00:39:07;;;;;;;3.70;2.40;;;;;;;-7.41;100.00;140481.91;110581;1267;22223;-62
2024/01/26 00:41:53;;;;;;;3.50;1.80;;;;;;;-7.41;100.00;140481.66;110589;1273;22139;-62
2024/01/26 00:44:39;;;;;;;2.70;1.50;;;;;;;-7.44;100.00;140473.75;110564;1267;22374;-63
2024/01/26 00:47:25;;;;;;;5.20;2.20;;;;;;;-7.45;100.00;140471.53;110558;1264;22141;-62
2024/01/26 00:50:12;;;;;;;3.20;1.50;;;;;;;-7.48;100.00;140464.13;110659;1267;22431;-60
2024/01/26 00:52:58;;;;;;;5.00;1.90;;;;;;;-7.55;100.00;140447.84;110535;1267;22302;-65
2024/01/26 00:55:44;;;;;;;4.40;2.10;;;;;;;-7.59;100.00;140437.23;110566;1270;23071;-62
2024/01/26 00:58:31;;;;;;;4.10;2.20;;;;;;;-7.54;100.00;140449.58;110564;1271;22321;-62
2024/01/26 01:01:16;;;;;;;3.50;1.60;;;;;;;-7.47;100.00;140465.86;110566;1266;22160;-61
2024/01/26 01:04:04;;;;;;;3.50;1.90;;;;;;;-7.46;100.00;140468.58;110600;1267;22181;-60
2024/01/26 01:06:53;;;;;;;4.30;2.10;;;;;;;-7.42;100.00;140478.95;110559;1269;22347;-64
2024/01/26 01:09:41;;;;;;;4.70;1.80;;;;;;;-7.44;100.00;140475.00;110548;1273;22333;-61
2024/01/26 01:12:27;;;;;;;4.80;1.90;;;;;;;-7.54;100.00;140450.80;110601;1267;22366;-59
2024/01/26 01:15:13;;;;;;;2.90;1.50;;;;;;;-7.58;100.00;140438.95;110658;1267;22319;-54
2024/01/26 01:18:00;;;;;;;3.10;1.70;;;;;;;-7.66;100.00;140420.67;110564;1272;23143;-59
2024/01/26 01:20:47;;;;;;;3.10;1.80;;;;;;;-7.71;100.00;140410.08;110539;1272;22323;-60
2024/01/26 01:23:33;;;;;;;7.70;1.80;;;;;;;-7.73;100.00;140404.16;110654;1252;22157;-60
2024/01/26 01:26:19;;;;;;;2.90;1.60;;;;;;;-7.74;100.00;140400.95;110575;1261;22139;-58
2024/01/26 01:29:06;;;;;;;3.90;1.70;;;;;;;-7.79;100.00;140388.36;110537;1273;22323;-59
2024/01/26 01:31:53;;;;;;;2.70;1.60;;;;;;;-7.87;100.00;140370.84;110848;1266;22145;-62
2024/01/26 01:34:39;;;;;;;3.00;1.60;;;;;;;-7.86;100.00;140372.81;110678;1267;22140;-59
2024/01/26 01:37:25;;;;;;;5.30;1.90;;;;;;;-7.83;100.00;140379.00;110584;1256;22280;-61
2024/01/26 01:40:11;;;;;;;3.40;1.80;;;;;;;-7.83;100.00;140379.73;110659;1265;22296;-60
2024/01/26 01:42:58;;;;;;;4.70;2.10;;;;;;;-7.84;100.00;140376.77;110664;1265;22345;-57
2024/01/26 01:45:44;;;;;;;3.80;2.10;;;;;;;-7.84;100.00;140376.52;110940;1252;22402;-61
2024/01/26 01:48:30;;;;;;;2.60;1.50;;;;;;;-7.81;100.00;140383.69;110618;1257;22805;-57
2024/01/26 01:51:17;;;;;;;4.20;1.80;;;;;;;-7.84;100.00;140377.75;110639;1266;22303;-58
2024/01/26 01:54:03;;;;;;;3.50;1.70;;;;;;;-7.91;100.00;140361.95;110581;1273;22368;-60
2024/01/26 01:56:51;;;;;;;2.80;1.60;;;;;;;-7.92;100.00;140358.00;110545;1267;22139;-60
2024/01/26 01:59:38;;;;;;;3.00;1.60;;;;;;;-7.91;100.00;140361.47;110559;1266;22132;-60
2024/01/26 02:02:25;;;;;;;3.60;1.90;;;;;;;-7.86;100.00;140373.06;110780;1265;22140;-59
2024/01/26 02:05:13;;;;;;;5.70;2.10;;;;;;;-7.89;100.00;140365.66;110852;1266;22328;-58
2024/01/26 02:07:59;;;;;;;3.80;1.90;;;;;;;-7.93;100.00;140355.05;110602;1267;22333;-57
2024/01/26 02:10:45;;;;;;;3.50;2.00;;;;;;;-7.95;100.00;140350.59;110574;1267;22137;-61
2024/01/26 02:13:31;;;;;;;3.30;1.90;;;;;;;-7.91;100.00;140359.97;110545;1272;22318;-56
2024/01/26 02:16:17;;;;;;;3.60;1.80;;;;;;;-7.90;100.00;140362.19;110600;1266;22312;-60
2024/01/26 02:19:03;;;;;;;3.20;1.70;;;;;;;-7.85;100.00;140376.03;110612;1266;22303;-60
2024/01/26 02:21:50;;;;;;;3.50;2.00;;;;;;;-7.82;100.00;140381.20;110618;1267;22296;-59
2024/01/26 02:24:36;;;;;;;4.00;1.80;;;;;;;-7.83;100.00;140380.97;110581;1267;22352;-60
2024/01/26 02:27:22;;;;;;;3.10;1.60;;;;;;;-7.86;100.00;140372.56;110664;1267;22125;-60
2024/01/26 02:30:09;;;;;;;3.40;1.90;;;;;;;-7.88;100.00;140368.84;110621;1267;22131;-57
2024/01/26 02:32:56;;;;;;;3.90;2.00;;;;;;;-7.82;100.00;140381.95;110578;1259;22302;-62
2024/01/26 02:35:43;;;;;;;3.30;1.90;;;;;;;-7.78;100.00;140393.53;110686;1266;23022;-58
2024/01/26 02:38:29;;;;;;;4.40;1.80;;;;;;;-7.78;100.00;140391.58;110730;1256;23030;-62
2024/01/26 02:41:15;;;;;;;3.40;1.90;;;;;;;-7.82;100.00;140383.44;110819;1254;22401;-60
2024/01/26 02:44:02;;;;;;;5.50;1.90;;;;;;;-7.81;100.00;140383.94;110606;1259;22118;-57
2024/01/26 02:46:48;;;;;;;4.50;2.30;;;;;;;-7.81;100.00;140384.91;110582;1267;23035;-61
2024/01/26 02:49:34;;;;;;;4.40;2.30;;;;;;;-7.75;100.00;140400.70;110568;1267;22150;-61
2024/01/26 02:52:20;;;;;;;3.90;2.20;;;;;;;-7.75;100.00;140399.72;110583;1272;22144;-57
2024/01/26 02:55:06;;;;;;;3.30;1.90;;;;;;;-7.77;100.00;140393.78;110635;1272;22136;-60
2024/01/26 02:57:52;;;;;;;3.80;2.00;;;;;;;-7.76;100.00;140397.97;110583;1267;22111;-63
2024/01/26 03:00:38;;;;;;;8.60;3.50;;;;;;;-7.74;100.00;140402.20;110572;1272;22123;-56
2024/01/26 03:03:25;;;;;;;4.10;2.40;;;;;;;-7.68;100.00;140416.25;110557;1268;22147;-54
2024/01/26 03:06:14;;;;;;;4.60;2.20;;;;;;;-7.65;100.00;140424.63;110568;1273;22326;-59
2024/01/26 03:09:02;;;;;;;4.10;2.20;;;;;;;-7.63;100.00;140428.09;110715;1265;22299;-62
2024/01/26 03:11:49;;;;;;;3.50;1.90;;;;;;;-7.70;100.00;140412.78;110705;1265;22354;-58
2024/01/26 03:14:35;;;;;;;3.70;1.70;;;;;;;-7.68;100.00;140416.98;110573;1266;22375;-60
2024/01/26 03:17:21;;;;;;;3.50;1.80;;;;;;;-7.65;100.00;140423.91;110592;1272;22347;-59
2024/01/26 03:20:10;;;;;;;3.80;2.20;;;;;;;-7.64;100.00;140427.34;110584;1272;22110;-59
2024/01/26 03:22:56;;;;;;;4.30;1.90;;;;;;;-7.61;100.00;140433.78;110648;1273;22304;-62
2024/01/26 03:25:43;;;;;;;3.90;1.90;;;;;;;-7.61;100.00;140433.28;110644;1266;22181;-59
2024/01/26 03:28:29;;;;;;;3.80;1.80;;;;;;;-7.67;100.00;140418.47;110576;1267;22163;-55
2024/01/26 03:31:15;;;;;;;3.10;1.60;;;;;;;-7.64;100.00;140426.61;110571;1267;22140;-58
2024/01/26 03:34:01;;;;;;;3.30;1.90;;;;;;;-7.68;100.00;140415.28;110557;1273;22814;-61
2024/01/26 03:36:48;;;;;;;3.20;1.90;;;;;;;-7.65;100.00;140423.91;110559;1272;22346;-61
2024/01/26 03:39:34;;;;;;;4.70;2.10;;;;;;;-7.66;100.00;140422.17;110590;1259;22148;-59
2024/01/26 03:42:20;;;;;;;5.30;1.70;;;;;;;-7.72;100.00;140406.39;110763;1253;22125;-64
2024/01/26 03:45:07;;;;;;;3.80;1.90;;;;;;;-7.77;100.00;140393.55;110600;1265;22127;-54
2024/01/26 03:47:53;;;;;;;4.40;1.90;;;;;;;-7.76;100.00;140398.25;110677;1267;22297;-58
2024/01/26 03:50:39;;;;;;;3.20;1.80;;;;;;;-7.73;100.00;140404.89;110593;1258;22155;-57
2024/01/26 03:53:26;;;;;;;2.70;1.80;;;;;;;-7.71;100.00;140410.08;110570;1272;22160;-61
2024/01/26 03:56:12;;;;;;;2.60;1.70;;;;;;;-7.79;100.00;140390.09;110713;1273;23026;-60
2024/01/26 03:58:58;;;;;;;4.00;2.00;;;;;;;-7.86;100.00;140372.08;110598;1266;22204;-62
2024/01/26 04:01:44;;;;;;;4.30;2.10;;;;;;;-7.90;100.00;140363.92;110635;1252;23068;-61
2024/01/26 04:04:30;;;;;;;5.70;2.20;;;;;;;-7.91;100.00;140361.95;110623;1273;22177;-60
2024/01/26 04:07:16;;;;;;;3.10;2.00;;;;;;;-7.86;100.00;140373.55;110588;1266;22141;-61
2024/01/26 04:10:03;;;;;;;4.70;1.90;;;;;;;-7.87;100.00;140371.83;110638;1273;23032;-60
2024/01/26 04:12:49;;;;;;;3.70;1.80;;;;;;;-7.88;100.00;140368.86;110774;1266;22334;-59
2024/01/26 04:15:35;;;;;;;3.40;2.00;;;;;;;-7.88;100.00;140367.16;110563;1265;22138;-57
2024/01/26 04:18:22;;;;;;;3.80;1.80;;;;;;;-7.91;100.00;140359.73;110572;1273;22130;-59
2024/01/26 04:21:09;;;;;;;5.40;2.10;;;;;;;-7.95;100.00;140351.59;110518;1269;22360;-59
2024/01/26 04:23:55;;;;;;;3.00;1.90;;;;;;;-7.98;100.00;140344.20;110610;1253;22955;-58
2024/01/26 04:26:41;;;;;;;3.40;1.90;;;;;;;-8.00;100.00;140337.78;110624;1267;22851;-57
2024/01/26 04:29:27;;;;;;;3.70;1.90;;;;;;;-7.99;100.00;140340.22;110613;1272;22269;-60
2024/01/26 04:32:13;;;;;;;4.00;2.00;;;;;;;-7.98;100.00;140343.95;110625;1272;22270;-62
2024/01/26 04:35:00;;;;;;;5.10;2.40;;;;;;;-7.99;100.00;140341.47;110574;1273;22910;-61
2024/01/26 04:37:46;;;;;;;4.60;2.60;;;;;;;-8.00;100.00;140338.03;110603;1272;22113;-59
2024/01/26 04:40:33;;;;;;;6.30;2.10;;;;;;;-8.03;100.00;140331.36;110645;1272;22158;-57
2024/01/26 04:43:19;;;;;;;4.60;2.60;;;;;;;-8.03;100.00;140331.09;110579;1272;22217;-55
2024/01/26 04:46:05;;;;;;;5.00;2.40;;;;;;;-8.00;100.00;140339.25;110672;1272;22128;-59
2024/01/26 04:48:51;;;;;;;5.80;2.70;;;;;;;-7.99;100.00;140340.00;110602;1272;22766;-61
2024/01/26 04:51:38;;;;;;;5.00;2.60;;;;;;;-7.99;100.00;140339.75;110581;1273;22823;-62
2024/01/26 04:54:24;;;;;;;5.40;3.30;;;;;;;-8.02;100.00;140334.56;110613;1272;22195;-60
2024/01/26 04:57:10;;;;;;;6.30;3.90;;;;;;;-8.01;100.00;140336.78;110579;1272;22135;-61
2024/01/26 04:59:56;;;;;;;3.10;2.00;;;;;;;-8.02;100.00;140333.09;110593;1273;22203;-60
2024/01/26 05:02:42;;;;;;;6.10;3.40;;;;;;;-8.03;100.00;140332.59;110580;1272;22961;-62
2024/01/26 05:05:28;;;;;;;5.60;4.10;;;;;;;-8.01;100.00;140335.56;110598;1273;22233;-61
2024/01/26 05:08:15;;;;;;;4.60;2.70;;;;;;;-8.09;100.00;140318.53;110601;1273;22184;-63
2024/01/26 05:11:00;;;;;;;5.30;3.30;;;;;;;-8.19;100.00;140294.11;110601;1272;22884;-62
2024/01/26 05:13:46;;;;;;;5.90;2.80;;;;;;;-8.26;100.00;140275.84;110556;1273;22327;-59
2024/01/26 05:16:32;;;;;;;4.40;2.20;;;;;;;-8.27;100.00;140273.13;110604;1273;22135;-64
2024/01/26 05:19:18;;;;;;;4.10;2.10;;;;;;;-8.30;100.00;140266.97;110560;1273;22323;-62
2024/01/26 05:22:05;;;;;;;5.00;2.40;;;;;;;-8.35;100.00;140253.91;110571;1266;22388;-60
2024/01/26 05:24:51;;;;;;;5.60;2.40;;;;;;;-8.33;100.00;140259.09;110715;1267;22342;-57
2024/01/26 05:27:40;;;;;;;4.60;2.60;;;;;;;-8.25;100.00;140279.31;110588;1273;22149;-58
2024/01/26 05:30:26;;;;;;;6.30;2.00;;;;;;;-8.22;100.00;140284.47;110541;1273;22803;-62
2024/01/26 05:33:12;;;;;;;5.60;3.70;;;;;;;-8.19;100.00;140294.34;110561;1265;22355;-60
2024/01/26 05:35:59;;;;;;;8.00;3.30;;;;;;;-8.18;100.00;140296.08;110574;1253;22304;-61
2024/01/26 05:38:46;;;;;;;4.80;2.50;;;;;;;-8.19;100.00;140293.86;110633;1256;22388;-62
2024/01/26 05:41:32;;;;;;;5.80;3.10;;;;;;;-8.21;100.00;140288.45;110604;1267;22149;-61
2024/01/26 05:44:19;;;;;;;4.00;2.40;;;;;;;-8.22;100.00;140284.48;110838;1256;22156;-57
2024/01/26 05:47:05;;;;;;;4.10;2.50;;;;;;;-8.31;100.00;140265.50;110578;1266;22148;-60
2024/01/26 05:49:51;;;;;;;4.40;2.20;;;;;;;-8.32;100.00;140262.03;110535;1266;22143;-59
2024/01/26 05:52:38;;;;;;;7.50;3.80;;;;;;;-8.31;100.00;140264.03;110552;1256;22134;-63
2024/01/26 05:55:23;;;;;;;5.40;2.90;;;;;;;-8.23;100.00;140283.27;110525;1273;22185;-58
2024/01/26 05:58:09;;;;;;;4.40;2.40;;;;;;;-8.18;100.00;140295.09;110800;1265;22333;-60
2024/01/26 06:00:56;;;;;;;4.60;2.60;;;;;;;-8.14;100.00;140306.45;110542;1266;22119;-62
2024/01/26 06:03:42;;;;;;;5.60;2.40;;;;;;;-8.13;100.00;140307.66;110548;1273;22143;-60
2024/01/26 06:06:28;;;;;;;5.20;2.60;;;;;;;-8.19;100.00;140294.61;110555;1273;22294;-61
2024/01/26 06:09:15;;;;;;;7.10;3.10;;;;;;;-8.20;100.00;140290.41;110560;1267;22137;-61
2024/01/26 06:12:02;;;;;;;6.30;3.40;;;;;;;-8.19;100.00;140292.63;110618;1267;22355;-60
2024/01/26 06:14:48;;;;;;;4.40;2.60;;;;;;;-8.22;100.00;140286.20;110602;1271;22123;-62
2024/01/26 06:17:35;;;;;;;8.70;3.00;;;;;;;-8.20;100.00;140290.66;110692;1256;22158;-63
2024/01/26 06:20:21;;;;;;;6.50;3.30;;;;;;;-8.21;100.00;140289.17;110735;1266;22394;-59
2024/01/26 06:23:07;;;;;;;8.20;3.90;;;;;;;-8.16;100.00;140301.50;110721;1267;22973;-59
2024/01/26 06:25:54;;;;;;;7.40;4.00;;;;;;;-8.08;100.00;140319.53;110724;1273;22219;-61
2024/01/26 06:28:40;;;;;;;6.40;3.30;;;;;;;-7.99;100.00;140340.00;110687;1251;103011;-64
2024/01/26 06:31:27;;;;;;;8.70;4.10;;;;;;;-7.99;100.00;140340.47;110652;1268;22142;-62
2024/01/26 06:34:13;;;;;;;6.50;4.00;;;;;;;-7.99;100.00;140341.95;110635;1272;22320;-62
2024/01/26 06:36:59;;;;;;;6.20;3.70;;;;;;;-7.95;100.00;140351.83;110637;1267;22131;-64
2024/01/26 06:39:45;;;;;;;9.20;4.20;;;;;;;-7.93;100.00;140357.27;110611;1273;22142;-65
2024/01/26 06:42:32;;;;;;;11.50;6.30;;;;;;;-7.92;100.00;140357.75;110625;1267;22116;-58
2024/01/26 06:45:18;;;;;;;10.40;6.30;;;;;;;-7.83;100.00;140379.48;110625;1266;23126;-65
2024/01/26 06:48:04;;;;;;;12.10;5.50;;;;;;;-7.77;100.00;140395.53;110702;1266;22132;-60
2024/01/26 06:50:51;;;;;;;7.90;4.40;;;;;;;-7.76;100.00;140397.98;110668;1264;22162;-63
2024/01/26 06:53:37;;;;;;;7.70;4.50;;;;;;;-7.79;100.00;140389.84;110653;1265;22109;-65
2024/01/26 06:56:24;;;;;;;14.20;7.60;;;;;;;-7.77;100.00;140393.78;110742;1254;23126;-58
2024/01/26 06:59:10;;;;;;;9.20;5.20;;;;;;;-7.77;100.00;140394.28;110764;1265;23072;-66
2024/01/26 07:01:58;;;;;;;8.40;4.70;;;;;;;-7.78;100.00;140391.33;110492;1260;22361;-65
2024/01/26 07:04:45;;;;;;;7.20;4.70;;;;;;;-7.72;100.00;140406.13;110559;1260;22382;-60
2024/01/26 07:07:31;;;;;;;10.50;4.40;;;;;;;-7.69;100.00;140413.78;110663;1254;23080;-65
2024/01/26 07:10:18;;;;;;;7.70;3.80;;;;;;;-7.71;100.00;140408.84;110559;1267;22126;-62
2024/01/26 07:13:06;;;;;;;8.70;4.20;;;;;;;-7.79;100.00;140389.84;110512;1259;22686;-66
2024/01/26 07:15:52;;;;;;;9.30;4.50;;;;;;;-7.81;100.00;140385.16;110438;1259;23160;-61
2024/01/26 07:18:39;;;;;;;8.40;4.30;;;;;;;-7.81;100.00;140385.16;110472;1267;22176;-57
2024/01/26 07:21:25;;;;;;;7.50;4.30;;;;;;;-7.77;100.00;140395.53;110455;1267;22228;-60
2024/01/26 07:24:12;;;;;;;7.10;3.90;;;;;;;-7.72;100.00;140405.88;110474;1255;22425;-59
2024/01/26 07:26:59;;;;;;;8.90;4.80;;;;;;;-7.77;100.00;140394.28;110438;1259;22192;-62
2024/01/26 07:29:47;;;;;;;7.20;4.40;;;;;;;-7.81;100.00;140386.16;110518;1267;22853;-61
2024/01/26 07:32:34;;;;;;;8.30;4.30;;;;;;;-7.87;100.00;140370.09;110569;1263;23164;-64
2024/01/26 07:35:21;;;;;;;9.30;4.80;;;;;;;-7.91;100.00;140360.95;110527;1264;22250;-61
2024/01/26 07:38:08;;;;;;;8.70;4.40;;;;;;;-7.92;100.00;140358.48;110531;1259;22316;-66
2024/01/26 07:40:54;;;;;;;9.70;4.50;;;;;;;-7.91;100.00;140359.97;110547;1269;22186;-63
2024/01/26 07:43:40;;;;;;;6.50;3.60;;;;;;;-7.89;100.00;140364.41;110487;1262;22387;-64
2024/01/26 07:46:26;;;;;;;7.90;3.90;;;;;;;-7.93;100.00;140355.28;110479;1259;22204;-66
2024/01/26 07:49:12;;;;;;;7.50;4.10;;;;;;;-7.96;100.00;140349.13;110386;1259;22187;-65
2024/01/26 07:52:00;;;;;;;8.60;4.60;;;;;;;-7.94;100.00;140352.81;110528;1262;22172;-65
2024/01/26 07:54:46;;;;;;;7.20;4.40;;;;;;;-7.97;100.00;140344.92;110514;1268;22447;-63
2024/01/26 07:57:32;;;;;;;9.50;4.90;;;;;;;-7.99;100.00;140341.00;110509;1252;23087;-63
2024/01/26 08:00:18;;;;;;;9.60;4.90;;;;;;;-7.94;100.00;140353.34;110489;1262;22299;-60
2024/01/26 08:03:08;;;;;;;10.90;5.20;;;;;;;-7.89;100.00;140366.16;110518;1260;22417;-62
2024/01/26 08:05:55;;;;;;;8.30;5.10;;;;;;;-7.84;100.00;140377.75;110457;1268;22217;-63
2024/01/26 08:08:41;;;;;;;9.00;4.90;;;;;;;-7.82;100.00;140380.97;110474;1262;22201;-62
2024/01/26 08:11:28;;;;;;;8.10;4.90;;;;;;;-7.81;100.00;140385.91;110465;1264;22190;-63
2024/01/26 08:14:15;;;;;;;9.10;5.20;;;;;;;-7.78;100.00;140393.06;110493;1259;23079;-64
2024/01/26 08:17:01;;;;;;;10.40;5.80;;;;;;;-7.82;100.00;140382.45;110502;1263;22330;-61
2024/01/26 08:19:47;;;;;;;8.10;5.40;;;;;;;-7.82;100.00;140383.20;110517;1258;22194;-64
2024/01/26 08:22:33;;;;;;;11.30;6.00;;;;;;;-7.78;100.00;140393.55;110485;1260;23090;-62
2024/01/26 08:25:20;;;;;;;10.40;6.60;;;;;;;-7.72;100.00;140407.11;110513;1264;22362;-64
2024/01/26 08:28:06;;;;;;;7.50;4.80;;;;;;;-7.74;100.00;140402.67;110502;1263;22308;-61
2024/01/26 08:30:53;;;;;;;8.40;4.50;;;;;;;-7.68;100.00;140417.25;110532;1263;22360;-59
2024/01/26 08:33:42;;;;;;;8.30;4.40;;;;;;;-7.66;100.00;140421.69;110535;1259;22891;-62
2024/01/26 08:36:29;;;;;;;7.00;3.80;;;;;;;-7.53;100.00;140452.03;110488;1253;22210;-62
2024/01/26 08:39:15;;;;;;;9.80;5.10;;;;;;;-7.46;100.00;140469.06;110527;1259;22324;-58
2024/01/26 08:42:02;;;;;;;5.50;3.60;;;;;;;-7.42;100.00;140479.92;110509;1255;22354;-61
2024/01/26 08:44:48;;;;;;;9.20;3.70;;;;;;;-7.38;100.00;140488.81;110507;1266;22197;-64
2024/01/26 08:47:35;;;;;;;7.50;4.40;;;;;;;-7.28;100.00;140513.52;110487;1259;22972;-62
2024/01/26 08:50:22;;;;;;;7.40;4.10;;;;;;;-7.15;100.00;140543.39;110508;1258;23348;-63
2024/01/26 08:53:09;;;;;;;6.00;4.00;;;;;;;-7.06;100.00;140566.33;110499;1263;22304;-65
2024/01/26 08:55:55;;;;;;;7.70;3.60;;;;;;;-7.00;100.00;140579.67;110495;1260;23026;-62
2024/01/26 08:58:41;;;;;;;5.40;2.80;;;;;;;-7.06;100.00;140565.59;110585;1259;22151;-60
2024/01/26 09:01:28;;;;;;;5.90;3.00;;;;;;;-7.10;100.00;140555.97;110507;1252;22200;-62
2024/01/26 09:04:14;;;;;;;5.30;3.30;;;;;;;-7.13;100.00;140547.33;110540;1260;22322;-61
2024/01/26 09:07:01;;;;;;;7.10;3.50;;;;;;;-7.06;100.00;140564.59;110505;1263;23587;-63
2024/01/26 09:09:55;;;;;;;7.80;3.30;;;;;;;-6.96;100.00;140591.05;110509;1260;22344;-59
2024/01/26 09:12:41;;;;;;;5.20;2.50;;;;;;;-6.82;100.00;140624.41;110558;1259;22402;-63
2024/01/26 09:15:27;;;;;;;5.10;3.10;;;;;;;-6.71;100.00;140650.58;110529;1267;22208;-63
2024/01/26 09:18:16;;;;;;;6.30;3.20;;;;;;;-6.63;100.00;140669.09;110515;1259;22296;-60
2024/01/26 09:21:04;;;;;;;4.30;2.50;;;;;;;-6.66;100.00;140660.95;110584;1256;22298;-58
2024/01/26 09:23:50;;;;;;;3.70;2.10;;;;;;;-6.86;100.00;140613.28;110543;1273;22241;-60
2024/01/26 09:26:39;;;;;;;5.60;2.70;;;;;;;-6.97;100.00;140587.09;110510;1268;22401;-61
2024/01/26 09:29:26;;;;;;;8.10;3.50;;;;;;;-7.04;100.00;140571.78;110539;1266;22197;-65
2024/01/26 09:32:12;;;;;;;5.70;3.10;;;;;;;-7.04;100.00;140571.78;110480;1255;22353;-57
2024/01/26 09:34:58;;;;;;;5.00;2.70;;;;;;;-6.99;100.00;140582.66;110519;1265;22332;-64
2024/01/26 09:37:45;;;;;;;5.80;2.90;;;;;;;-6.95;100.00;140592.78;110634;1257;23168;-60
2024/01/26 09:40:31;;;;;;;5.20;2.70;;;;;;;-6.88;100.00;140609.08;110502;1264;23010;-64
2024/01/26 09:43:18;;;;;;;7.10;2.90;;;;;;;-6.84;100.00;140619.95;110522;1264;22245;-62
2024/01/26 09:46:07;;;;;;;6.50;3.30;;;;;;;-6.90;100.00;140604.88;110542;1259;22339;-60
2024/01/26 09:48:56;;;;;;;6.80;3.10;;;;;;;-6.97;100.00;140587.11;110505;1263;23037;-61
2024/01/26 09:51:43;;;;;;;6.20;2.40;;;;;;;-6.99;100.00;140583.41;110483;1265;22381;-63
2024/01/26 09:54:30;;;;;;;5.50;2.70;;;;;;;-7.07;100.00;140563.38;110559;1264;22221;-62
2024/01/26 09:57:20;;;;;;;5.10;2.80;;;;;;;-7.12;100.00;140551.03;110579;1262;22224;-63
2024/01/26 10:00:10;;;;;;;5.10;3.00;;;;;;;-7.11;100.00;140552.00;110520;1256;22392;-63
2024/01/26 10:02:56;;;;;;;5.30;2.90;;;;;;;-7.07;100.00;140564.84;110569;1258;22175;-63
2024/01/26 10:05:43;;;;;;;5.30;3.00;;;;;;;-7.03;100.00;140574.22;110539;1269;22206;-63
2024/01/26 10:08:42;;;;;;;8.70;4.50;;;;;;;-7.04;100.00;140571.28;110544;1256;22204;-59
2024/01/26 10:11:30;;;;;;;7.30;3.70;;;;;;;-7.00;100.00;140579.17;110510;1272;22200;-60
2024/01/26 10:14:23;;;;;;;7.00;4.10;;;;;;;-6.96;100.00;140589.81;110513;1272;22253;-66
2024/01/26 10:17:16;;;;;;;8.70;4.00;;;;;;;-6.92;100.00;140599.95;110533;1265;22332;-64
2024/01/26 10:20:15;;;;;;;8.20;5.00;;;;;;;-7.00;100.00;140579.94;110519;1272;22343;-60
2024/01/26 10:23:02;;;;;;;7.40;4.60;;;;;;;-7.01;100.00;140577.45;110505;1259;22350;-60
2024/01/26 10:25:50;;;;;;;8.90;5.00;;;;;;;-7.06;100.00;140566.09;110520;1259;23504;-61
2024/01/26 10:28:36;;;;;;;5.80;3.80;;;;;;;-7.09;100.00;140559.19;110480;1273;22333;-63
2024/01/26 10:31:25;;;;;;;5.50;3.20;;;;;;;-7.13;100.00;140549.31;110524;1272;22353;-61
2024/01/26 10:34:14;;;;;;;6.40;3.20;;;;;;;-7.20;100.00;140531.03;110560;1256;22313;-61
2024/01/26 10:37:05;;;;;;;7.20;3.60;;;;;;;-7.14;100.00;140545.59;110540;1259;22304;-62
2024/01/26 10:39:53;;;;;;;6.80;3.60;;;;;;;-7.08;100.00;140559.91;110540;1266;22989;-63
2024/01/26 10:42:42;;;;;;;6.80;3.70;;;;;;;-7.07;100.00;140563.63;110524;1270;22331;-57
2024/01/26 10:45:28;;;;;;;7.30;4.40;;;;;;;-7.08;100.00;140559.92;110542;1259;23491;-60
2024/01/26 10:48:16;;;;;;;7.20;4.50;;;;;;;-7.12;100.00;140551.78;110512;1258;22297;-62
2024/01/26 10:51:03;;;;;;;7.60;3.40;;;;;;;-7.14;100.00;140546.59;110493;1255;22346;-63
2024/01/26 10:53:51;;;;;;;7.10;3.50;;;;;;;-7.08;100.00;140560.16;110501;1259;22440;-63
2024/01/26 10:56:38;;;;;;;8.60;3.90;;;;;;;-7.01;100.00;140576.95;110502;1268;22406;-60
2024/01/26 10:59:25;;;;;;;7.60;4.20;;;;;;;-6.99;100.00;140583.38;110483;1256;22398;-63
2024/01/26 11:02:30;;;;;;;7.40;4.20;;;;;;;-7.00;100.00;140580.42;110590;1262;22320;-61
2024/01/26 11:05:17;;;;;;;7.40;3.50;;;;;;;-7.09;100.00;140556.95;110523;1256;22331;-59
2024/01/26 11:08:16;;;;;;;6.50;4.10;;;;;;;-7.12;100.00;140551.78;110491;1257;22425;-62
2024/01/26 11:11:03;;;;;;;8.00;4.30;;;;;;;-7.03;100.00;140572.52;110503;1254;23044;-63
2024/01/26 11:13:52;;;;;;;14.80;8.40;;;;;;;-6.96;100.00;140589.34;110482;1266;22393;-61
2024/01/26 11:16:43;;;;;;;9.30;5.40;;;;;;;-7.03;100.00;140573.00;110496;1266;22403;-59
2024/01/26 11:19:31;;;;;;;8.20;4.30;;;;;;;-7.13;100.00;140548.08;110643;1260;22394;-62
2024/01/26 11:22:18;;;;;;;6.50;3.90;;;;;;;-7.19;100.00;140534.50;110529;1256;22111;-62
2024/01/26 11:25:05;;;;;;;7.90;4.10;;;;;;;-7.20;100.00;140532.53;110555;1261;22313;-60
2024/01/26 11:27:59;;;;;;;6.50;3.70;;;;;;;-7.15;100.00;140542.91;110529;1256;22216;-62
2024/01/26 11:30:53;;;;;;;6.00;3.10;;;;;;;-7.13;100.00;140549.80;110532;1263;23024;-61
2024/01/26 11:33:40;;;;;;;5.90;4.00;;;;;;;-7.11;100.00;140552.27;110480;1265;22406;-61
2024/01/26 11:36:31;;;;;;;7.30;3.40;;;;;;;-7.09;100.00;140558.67;110518;1256;22273;-61
2024/01/26 11:39:19;;;;;;;8.30;3.50;;;;;;;-7.07;100.00;140563.13;110492;1256;22860;-60
2024/01/26 11:42:12;;;;;;;6.30;3.70;;;;;;;-7.06;100.00;140566.09;110502;1266;23030;-60
2024/01/26 11:45:09;;;;;;;8.00;4.40;;;;;;;-7.03;100.00;140573.50;110537;1260;22179;-61
2024/01/26 11:47:56;;;;;;;5.80;3.20;;;;;;;-7.04;100.00;140570.06;110475;1269;22245;-63
2024/01/26 11:50:44;;;;;;;5.40;3.40;;;;;;;-7.06;100.00;140566.34;110547;1254;22222;-61
2024/01/26 11:53:31;;;;;;;9.00;3.60;;;;;;;-7.01;100.00;140577.20;110491;1265;22362;-61
2024/01/26 11:56:17;;;;;;;6.70;4.10;;;;;;;-6.97;100.00;140586.86;110495;1260;22401;-63
2024/01/26 11:59:06;;;;;;;6.90;4.10;;;;;;;-7.03;100.00;140574.23;110479;1265;22222;-62
2024/01/26 12:01:54;;;;;;;6.90;4.20;;;;;;;-7.02;100.00;140575.22;110458;1266;22975;-62
2024/01/26 12:04:41;;;;;;;6.80;4.40;;;;;;;-7.08;100.00;140561.66;110499;1258;22285;-62
2024/01/26 12:07:28;;;;;;;6.10;3.80;;;;;;;-7.07;100.00;140561.91;110517;1259;22397;-64
2024/01/26 12:10:16;;;;;;;7.00;3.40;;;;;;;-7.11;100.00;140554.00;110504;1257;23991;-62
2024/01/26 12:13:04;;;;;;;7.10;3.70;;;;;;;-7.13;100.00;140547.34;110485;1265;22342;-61
2024/01/26 12:15:50;;;;;;;8.00;4.00;;;;;;;-7.19;100.00;140535.23;110601;1269;22315;-60
2024/01/26 12:18:37;;;;;;;8.00;4.10;;;;;;;-7.20;100.00;140532.28;110522;1267;23567;-62
2024/01/26 12:21:28;;;;;;;10.10;4.90;;;;;;;-7.18;100.00;140535.97;110512;1259;22428;-62
2024/01/26 12:24:15;;;;;;;14.10;7.10;;;;;;;-7.15;100.00;140544.61;110509;1256;22237;-63
2024/01/26 12:27:03;;;;;;;10.10;5.50;;;;;;;-7.17;100.00;140538.69;110503;1259;22350;-61
2024/01/26 12:29:49;;;;;;;11.80;4.40;;;;;;;-7.15;100.00;140543.39;110482;1260;22338;-62
2024/01/26 12:32:37;;;;;;;7.30;3.80;;;;;;;-7.17;100.00;140537.94;110532;1259;22384;-60
2024/01/26 12:35:24;;;;;;;6.80;3.40;;;;;;;-7.18;100.00;140535.47;110511;1272;22725;-65
2024/01/26 12:38:11;;;;;;;9.10;3.50;;;;;;;-7.16;100.00;140542.16;110497;1272;22190;-63